createdAt,value
2023-05-05T00:01:32.505Z,13.20
2023-05-05T00:06:37.737Z,17.00
2023-05-05T00:11:41.602Z,15.97
2023-05-05T00:16:45.584Z,15.63
2023-05-05T00:21:51.086Z,18.17
2023-05-05T00:26:54.972Z,16.27
2023-05-05T00:31:59.035Z,17.85
2023-05-05T00:37:04.630Z,13.48
2023-05-05T00:42:08.566Z,18.80
2023-05-05T00:47:13.941Z,21.75
2023-05-05T00:52:19.298Z,18.60
2023-05-05T00:57:23.554Z,18.63
2023-05-05T01:02:27.774Z,15.10
2023-05-05T01:07:42.455Z,13.20
2023-05-05T01:12:54.771Z,17.45
2023-05-05T01:18:04.049Z,18.25
2023-05-05T01:23:13.560Z,19.98
2023-05-05T01:28:29.147Z,16.17
2023-05-05T01:33:38.047Z,16.42
2023-05-05T01:38:46.264Z,18.65
2023-05-05T01:43:51.702Z,18.27
2023-05-05T01:54:05.665Z,18.95
2023-05-05T01:59:10.885Z,16.40
2023-05-05T02:04:18.478Z,18.90
2023-05-05T02:09:24.951Z,20.77
2023-05-05T02:14:31.612Z,18.38
2023-05-05T02:19:41.157Z,14.63
2023-05-05T02:24:45.873Z,14.20
2023-05-05T02:29:54.041Z,21.48
2023-05-05T02:35:02.820Z,13.68
2023-05-05T02:40:10.236Z,17.10
2023-05-05T02:45:19.530Z,20.50
2023-05-05T02:50:27.041Z,16.13
2023-05-05T02:55:45.302Z,15.45
2023-05-05T03:00:56.884Z,18.90
2023-05-05T03:06:12.472Z,15.25
2023-05-05T03:11:25.117Z,18.90
2023-05-05T03:16:32.341Z,17.73
2023-05-05T03:21:38.653Z,24.05
2023-05-05T03:26:44.321Z,18.58
2023-05-05T03:31:48.736Z,25.40
2023-05-05T03:36:54.087Z,25.23
2023-05-05T03:41:58.103Z,15.55
2023-05-05T03:47:06.852Z,15.35
2023-05-05T03:52:15.153Z,19.42
2023-05-05T03:57:20.401Z,40.85
2023-05-05T04:02:24.449Z,19.90
2023-05-05T04:07:29.897Z,20.70
2023-05-05T04:12:33.999Z,19.55
2023-05-05T04:17:38.147Z,24.13
2023-05-05T04:22:43.742Z,20.67
2023-05-05T04:27:47.718Z,21.80
2023-05-05T04:32:51.872Z,18.15
2023-05-05T04:37:57.250Z,19.83
2023-05-05T04:43:01.468Z,17.00
2023-05-05T04:48:06.974Z,20.97
2023-05-05T04:53:12.382Z,21.02
2023-05-05T04:58:16.843Z,22.10
2023-05-05T05:03:22.213Z,18.80
2023-05-05T05:08:27.597Z,22.10
2023-05-05T05:13:31.625Z,18.52
2023-05-05T05:18:35.510Z,19.70
2023-05-05T05:23:41.131Z,17.65
2023-05-05T05:28:45.397Z,14.45
2023-05-05T05:33:49.530Z,17.83
2023-05-05T05:38:54.984Z,20.05
2023-05-05T05:43:59.080Z,17.63
2023-05-05T05:49:03.878Z,13.60
2023-05-05T05:54:09.548Z,12.57
2023-05-05T05:59:13.711Z,18.27
2023-05-05T06:04:18.886Z,13.70
2023-05-05T06:09:24.299Z,14.18
2023-05-05T06:14:30.740Z,11.38
2023-05-05T06:19:36.985Z,13.25
2023-05-05T06:29:46.466Z,19.42
2023-05-05T06:34:50.408Z,10.38
2023-05-05T06:39:56.835Z,14.75
2023-05-05T06:45:00.896Z,18.30
2023-05-05T06:50:05.554Z,14.00
2023-05-05T06:55:11.559Z,15.75
2023-05-05T07:00:17.466Z,13.85
2023-05-05T07:05:21.931Z,10.30
2023-05-05T07:10:28.616Z,10.10
2023-05-05T07:15:32.654Z,11.40
2023-05-05T07:20:36.632Z,11.55
2023-05-05T07:25:42.762Z,10.27
2023-05-05T07:30:46.813Z,20.35
2023-05-05T07:35:50.969Z,12.38
2023-05-05T07:40:56.303Z,15.15
2023-05-05T07:46:02.679Z,11.20
2023-05-05T07:51:06.648Z,9.73
2023-05-05T07:56:12.128Z,9.23
2023-05-05T08:01:16.218Z,9.80
2023-05-05T08:06:22.215Z,12.48
2023-05-05T08:11:29.558Z,15.80
2023-05-05T08:16:33.825Z,12.20
2023-05-05T08:21:37.896Z,10.77
2023-05-05T08:26:43.257Z,12.15
2023-05-05T08:31:47.246Z,11.68
2023-05-05T08:36:51.335Z,11.00
2023-05-05T08:41:56.701Z,12.60
2023-05-05T08:52:10.303Z,12.20
2023-05-05T08:57:20.917Z,7.18
2023-05-05T09:02:28.633Z,11.63
2023-05-05T09:07:33.562Z,17.83
2023-05-05T09:12:41.406Z,19.25
2023-05-05T09:17:46.265Z,8.85
2023-05-05T09:22:51.713Z,11.45
2023-05-05T09:27:57.127Z,8.73
2023-05-05T09:33:02.310Z,10.70
2023-05-05T09:38:12.970Z,8.40
2023-05-05T09:43:19.596Z,7.93
2023-05-05T09:48:27.554Z,9.05
2023-05-05T09:53:40.997Z,11.65
2023-05-05T09:58:46.490Z,10.38
2023-05-05T10:03:52.569Z,6.45
2023-05-05T10:09:02.343Z,11.27
2023-05-05T10:14:09.826Z,9.65
2023-05-05T10:19:16.445Z,8.00
2023-05-05T10:24:29.412Z,9.55
2023-05-05T10:29:41.393Z,7.00
2023-05-05T10:34:52.206Z,7.80
2023-05-05T10:39:57.570Z,5.82
2023-05-05T10:45:03.302Z,5.60
2023-05-05T10:50:15.123Z,48.63
2023-05-05T10:55:22.577Z,8.68
2023-05-05T11:00:55.689Z,12.23
2023-05-05T11:06:15.801Z,7.97
2023-05-05T11:12:00.329Z,6.97
2023-05-05T11:17:05.849Z,8.88
2023-05-05T11:27:13.957Z,5.90
2023-05-05T11:32:20.021Z,7.00
2023-05-05T11:37:25.262Z,4.30
2023-05-05T11:42:30.408Z,4.32
2023-05-05T11:47:36.304Z,6.20
2023-05-05T11:52:40.214Z,6.82
2023-05-05T11:57:44.054Z,5.77
2023-05-05T12:02:58.213Z,6.97
2023-05-05T12:08:02.805Z,5.32
2023-05-05T12:13:19.155Z,5.00
2023-05-05T12:18:24.653Z,8.60
2023-05-05T12:23:30.186Z,4.50
2023-05-05T12:28:46.451Z,8.70
2023-05-05T12:33:53.812Z,7.47
2023-05-05T12:38:57.851Z,5.47
2023-05-05T12:44:03.244Z,4.78
2023-05-05T12:49:09.868Z,6.15
2023-05-05T12:54:13.883Z,7.72
2023-05-05T12:59:30.789Z,6.17
2023-05-05T13:04:49.542Z,6.05
2023-05-05T13:10:07.119Z,10.98
2023-05-05T13:15:12.423Z,4.10
2023-05-05T13:20:17.992Z,8.63
2023-05-05T13:25:21.983Z,11.57
2023-05-05T13:30:25.932Z,2.57
2023-05-05T13:35:31.401Z,5.07
2023-05-05T13:40:35.481Z,3.25
2023-05-05T13:45:41.241Z,4.10
2023-05-05T13:50:47.234Z,6.53
2023-05-05T13:55:51.140Z,4.22
2023-05-05T14:00:56.349Z,3.08
2023-05-05T14:11:05.577Z,4.63
2023-05-05T14:16:09.723Z,7.10
2023-05-05T14:21:15.113Z,5.78
2023-05-05T14:26:19.092Z,7.95
2023-05-05T14:31:23.173Z,7.63
2023-05-05T14:36:28.649Z,3.37
2023-05-05T14:41:32.746Z,6.50
2023-05-05T14:46:36.829Z,3.85
2023-05-05T14:51:42.822Z,4.37
2023-05-05T14:56:46.692Z,4.18
2023-05-05T15:01:50.596Z,4.18
2023-05-05T15:06:56.484Z,3.50
2023-05-05T15:12:00.415Z,6.55
2023-05-05T15:17:04.343Z,2.25
2023-05-05T15:22:09.679Z,3.40
2023-05-05T15:27:13.690Z,4.53
2023-05-05T15:32:18.065Z,4.17
2023-05-05T15:37:23.632Z,6.40
2023-05-05T15:42:27.912Z,5.13
2023-05-05T15:47:31.942Z,3.28
2023-05-05T15:52:37.301Z,7.53
2023-05-05T15:57:41.458Z,4.95
2023-05-05T16:02:45.681Z,5.70
2023-05-05T16:07:52.546Z,5.07
2023-05-05T16:12:56.976Z,6.18
2023-05-05T16:18:00.929Z,4.93
2023-05-05T16:23:06.874Z,3.45
2023-05-05T16:28:10.797Z,5.32
2023-05-05T16:33:14.691Z,6.82
2023-05-05T16:38:19.985Z,6.45
2023-05-05T16:43:23.848Z,4.78
2023-05-05T16:48:27.721Z,3.30
2023-05-05T16:53:33.044Z,4.88
2023-05-05T16:58:36.904Z,5.03
2023-05-05T17:03:40.993Z,7.68
2023-05-05T17:08:46.388Z,3.38
2023-05-05T17:13:50.277Z,4.07
2023-05-05T17:19:08.823Z,5.18
2023-05-05T17:24:14.132Z,6.68
2023-05-05T17:29:19.890Z,5.30
2023-05-05T17:34:23.841Z,5.00
2023-05-05T17:39:29.110Z,7.18
2023-05-05T17:44:33.132Z,7.28
2023-05-05T17:49:37.068Z,8.73
2023-05-05T17:54:42.758Z,10.77
2023-05-05T18:04:51.290Z,5.05
2023-05-05T18:09:56.974Z,9.00
2023-05-05T18:15:01.627Z,10.68
2023-05-05T18:20:07.111Z,10.45
2023-05-05T18:25:12.908Z,8.40
2023-05-05T18:30:17.537Z,9.30
2023-05-05T18:35:21.462Z,9.35
2023-05-05T18:40:26.743Z,10.30
2023-05-05T18:45:30.783Z,8.38
2023-05-05T18:50:34.763Z,10.13
2023-05-05T18:55:40.116Z,15.68
2023-05-05T19:00:44.048Z,11.73
2023-05-05T19:05:47.933Z,10.95
2023-05-05T19:10:53.396Z,14.55
2023-05-05T19:15:58.050Z,8.70
2023-05-05T19:21:01.981Z,10.00
2023-05-05T19:26:07.317Z,10.60
2023-05-05T19:31:11.286Z,12.60
2023-05-05T19:36:15.694Z,10.25
2023-05-05T19:41:21.195Z,15.07
2023-05-05T19:46:26.518Z,15.15
2023-05-05T19:51:32.231Z,14.52
2023-05-05T19:56:37.672Z,16.15
2023-05-05T20:01:41.599Z,19.25
2023-05-05T20:06:48.206Z,18.33
2023-05-05T20:11:53.514Z,22.95
2023-05-05T20:16:58.660Z,18.30
2023-05-05T20:22:03.169Z,20.23
2023-05-05T20:27:08.458Z,18.77
2023-05-05T20:32:12.669Z,19.88
2023-05-05T20:37:16.675Z,19.85
2023-05-05T20:42:23.144Z,17.73
2023-05-05T20:47:27.092Z,16.40
2023-05-05T20:52:32.069Z,18.58
2023-05-05T20:57:37.924Z,20.97
2023-05-05T21:02:42.331Z,17.55
2023-05-05T21:07:46.736Z,23.75
2023-05-05T21:13:07.642Z,15.85
2023-05-05T21:18:11.701Z,17.45
2023-05-05T21:23:15.600Z,18.45
2023-05-05T21:28:20.996Z,13.85
2023-05-05T21:33:25.005Z,16.05
2023-05-05T21:38:28.915Z,17.65
2023-05-05T21:43:34.162Z,20.33
2023-05-05T21:48:39.075Z,18.27
2023-05-05T21:53:44.460Z,16.88
2023-05-05T21:58:52.774Z,14.30
2023-05-05T22:03:56.757Z,15.20
2023-05-05T22:09:01.035Z,13.52
2023-05-05T22:14:06.280Z,13.70
2023-05-05T22:19:10.460Z,17.35
2023-05-05T22:24:14.458Z,12.23
2023-05-05T22:29:19.692Z,13.52
2023-05-05T22:34:23.962Z,11.98
2023-05-05T22:39:27.966Z,12.20
2023-05-05T22:44:33.236Z,10.38
2023-05-05T22:49:37.166Z,11.43
2023-05-05T22:54:41.399Z,12.38
2023-05-05T22:59:46.715Z,13.18
2023-05-05T23:04:51.253Z,12.60
2023-05-05T23:09:55.340Z,10.60
2023-05-05T23:15:00.676Z,10.98
2023-05-05T23:20:05.871Z,8.25
2023-05-05T23:25:10.711Z,6.90
2023-05-05T23:30:16.787Z,8.20
2023-05-05T23:35:20.841Z,10.85
2023-05-05T23:40:25.031Z,12.07
2023-05-05T23:45:30.443Z,8.85
2023-05-05T23:50:34.304Z,7.83
2023-05-05T23:55:38.165Z,8.93
